createdAt,value
2023-11-30T00:01:09.828Z,14.00
2023-11-30T00:03:36.892Z,13.95
2023-11-30T00:06:03.781Z,14.40
2023-11-30T00:08:30.652Z,14.20
2023-11-30T00:10:57.452Z,12.93
2023-11-30T00:13:24.221Z,12.82
2023-11-30T00:15:51.004Z,13.55
2023-11-30T00:18:17.853Z,13.95
2023-11-30T00:20:44.648Z,13.05
2023-11-30T00:23:11.469Z,14.88
2023-11-30T00:25:38.271Z,14.13
2023-11-30T00:28:05.258Z,11.85
2023-11-30T00:30:32.171Z,13.38
2023-11-30T00:32:59.069Z,14.25
2023-11-30T00:35:25.905Z,12.95
2023-11-30T00:37:52.730Z,13.73
2023-11-30T00:40:19.486Z,14.15
2023-11-30T00:42:47.683Z,12.90
2023-11-30T00:45:14.874Z,13.57
2023-11-30T00:47:42.860Z,13.70
2023-11-30T00:50:10.005Z,13.50
2023-11-30T00:52:36.774Z,12.18
2023-11-30T00:55:04.463Z,12.10
2023-11-30T00:57:31.333Z,12.05
2023-11-30T01:00:01.536Z,12.05
2023-11-30T01:02:28.501Z,13.20
2023-11-30T01:04:55.321Z,12.43
2023-11-30T01:07:22.058Z,11.10
2023-11-30T01:09:48.841Z,11.70
2023-11-30T01:12:15.613Z,11.70
2023-11-30T01:14:43.249Z,10.45
2023-11-30T01:17:11.049Z,11.35
2023-11-30T01:19:37.881Z,10.43
2023-11-30T01:22:07.319Z,11.00
2023-11-30T01:24:34.216Z,9.60
2023-11-30T01:27:01.047Z,10.00
2023-11-30T01:29:27.904Z,11.07
2023-11-30T01:31:54.751Z,10.45
2023-11-30T01:34:21.557Z,10.45
2023-11-30T01:36:48.384Z,11.50
2023-11-30T01:39:16.574Z,10.38
2023-11-30T01:41:43.814Z,10.88
2023-11-30T01:44:12.154Z,10.65
2023-11-30T01:46:39.093Z,11.30
2023-11-30T01:49:07.969Z,11.00
2023-11-30T01:51:36.474Z,9.70
2023-11-30T01:54:04.618Z,9.60
2023-11-30T01:56:31.729Z,10.60
2023-11-30T01:58:58.530Z,10.95
2023-11-30T02:01:27.617Z,10.38
2023-11-30T02:03:55.258Z,10.57
2023-11-30T02:06:22.121Z,10.40
2023-11-30T02:08:49.054Z,11.15
2023-11-30T02:11:15.868Z,11.63
2023-11-30T02:13:42.770Z,11.02
2023-11-30T02:16:10.149Z,11.77
2023-11-30T02:18:36.966Z,11.05
2023-11-30T02:21:03.963Z,11.63
2023-11-30T02:23:30.796Z,11.80
2023-11-30T02:25:57.640Z,10.18
2023-11-30T02:28:25.850Z,11.95
2023-11-30T02:30:52.702Z,11.77
2023-11-30T02:33:19.690Z,10.38
2023-11-30T02:35:46.613Z,11.95
2023-11-30T02:38:13.460Z,12.00
2023-11-30T02:40:40.196Z,11.65
2023-11-30T02:43:06.993Z,10.63
2023-11-30T02:45:33.844Z,10.88
2023-11-30T02:48:01.886Z,10.93
2023-11-30T02:50:28.746Z,10.57
2023-11-30T02:52:55.600Z,10.88
2023-11-30T02:55:22.992Z,11.35
2023-11-30T02:57:50.514Z,11.60
2023-11-30T03:00:17.722Z,11.88
2023-11-30T03:02:44.572Z,10.95
2023-11-30T03:05:11.495Z,10.90
2023-11-30T03:07:38.251Z,12.02
2023-11-30T03:10:05.316Z,12.27
2023-11-30T03:12:32.095Z,11.43
2023-11-30T03:14:58.946Z,11.55
2023-11-30T03:17:25.726Z,10.63
2023-11-30T03:19:52.592Z,12.27
2023-11-30T03:22:19.342Z,10.93
2023-11-30T03:24:46.097Z,11.73
2023-11-30T03:27:13.343Z,11.40
2023-11-30T03:29:41.640Z,11.38
2023-11-30T03:32:08.631Z,12.43
2023-11-30T03:34:35.965Z,11.52
2023-11-30T03:37:04.475Z,11.95
2023-11-30T03:39:31.426Z,12.27
2023-11-30T03:41:58.325Z,14.00
2023-11-30T03:44:25.155Z,13.23
2023-11-30T03:46:51.925Z,12.68
2023-11-30T03:49:18.729Z,13.45
2023-11-30T03:51:45.496Z,12.75
2023-11-30T03:54:12.326Z,12.48
2023-11-30T03:56:39.048Z,13.93
2023-11-30T03:59:05.753Z,13.38
2023-11-30T04:01:32.609Z,14.38
2023-11-30T04:03:59.435Z,12.95
2023-11-30T04:06:26.236Z,12.80
2023-11-30T04:08:53.757Z,12.68
2023-11-30T04:11:20.795Z,12.68
2023-11-30T04:13:48.189Z,13.32
2023-11-30T04:16:16.468Z,12.20
2023-11-30T04:18:43.826Z,13.02
2023-11-30T04:21:10.985Z,12.75
2023-11-30T04:23:37.792Z,12.55
2023-11-30T04:26:04.625Z,12.65
2023-11-30T04:28:31.364Z,13.60
2023-11-30T04:30:58.315Z,12.18
2023-11-30T04:33:25.201Z,12.55
2023-11-30T04:35:52.212Z,12.10
2023-11-30T04:38:19.762Z,12.32
2023-11-30T04:40:46.561Z,12.90
2023-11-30T04:43:13.517Z,13.55
2023-11-30T04:45:40.406Z,11.43
2023-11-30T04:48:07.415Z,14.98
2023-11-30T04:50:34.183Z,12.05
2023-11-30T04:53:02.079Z,12.70
2023-11-30T04:55:28.872Z,12.25
2023-11-30T04:57:55.660Z,13.15
2023-11-30T05:00:22.976Z,11.50
2023-11-30T05:02:54.241Z,12.52
2023-11-30T05:05:21.218Z,12.85
2023-11-30T05:07:48.356Z,11.10
2023-11-30T05:10:15.306Z,12.93
2023-11-30T05:12:42.066Z,12.35
2023-11-30T05:15:09.098Z,11.80
2023-11-30T05:17:35.862Z,12.60
2023-11-30T05:20:04.754Z,11.43
2023-11-30T05:22:32.397Z,11.70
2023-11-30T05:24:59.125Z,11.52
2023-11-30T05:27:25.961Z,13.05
2023-11-30T05:29:52.863Z,11.65
2023-11-30T05:32:19.789Z,12.52
2023-11-30T05:34:46.627Z,12.25
2023-11-30T05:37:13.348Z,13.50
2023-11-30T05:39:40.393Z,12.38
2023-11-30T05:42:07.962Z,11.98
2023-11-30T05:44:34.813Z,11.95
2023-11-30T05:47:01.606Z,10.63
2023-11-30T05:49:28.414Z,10.93
2023-11-30T05:51:55.170Z,12.10
2023-11-30T05:54:22.739Z,11.80
2023-11-30T05:56:49.859Z,11.45
2023-11-30T05:59:16.621Z,11.27
2023-11-30T06:01:43.859Z,11.20
2023-11-30T06:04:11.020Z,12.60
2023-11-30T06:06:37.914Z,11.63
2023-11-30T06:09:05.384Z,11.43
2023-11-30T06:11:32.209Z,11.50
2023-11-30T06:14:01.576Z,10.75
2023-11-30T06:16:28.658Z,10.65
2023-11-30T06:18:55.382Z,10.73
2023-11-30T06:21:22.181Z,11.65
2023-11-30T06:23:48.923Z,11.00
2023-11-30T06:26:15.674Z,11.00
2023-11-30T06:28:42.473Z,11.30
2023-11-30T06:31:09.432Z,11.48
2023-11-30T06:33:36.292Z,11.52
2023-11-30T06:36:05.270Z,12.48
2023-11-30T06:38:32.332Z,13.23
2023-11-30T06:40:59.368Z,12.40
2023-11-30T06:43:27.216Z,11.95
2023-11-30T06:45:54.025Z,12.45
2023-11-30T06:48:22.456Z,13.77
2023-11-30T06:50:49.276Z,14.20
2023-11-30T06:53:16.086Z,12.73
2023-11-30T06:55:43.032Z,12.07
2023-11-30T06:58:09.795Z,12.55
2023-11-30T07:00:36.649Z,13.70
2023-11-30T07:03:03.554Z,11.80
2023-11-30T07:05:30.356Z,11.07
2023-11-30T07:07:57.143Z,11.57
2023-11-30T07:10:24.407Z,12.30
2023-11-30T07:12:51.223Z,11.20
2023-11-30T07:15:18.074Z,11.73
2023-11-30T07:17:44.877Z,11.77
2023-11-30T07:20:12.665Z,11.35
2023-11-30T07:22:39.389Z,11.48
2023-11-30T07:25:06.524Z,11.95
2023-11-30T07:27:33.453Z,11.98
2023-11-30T07:30:00.362Z,11.93
2023-11-30T07:32:27.330Z,13.13
2023-11-30T07:34:54.232Z,14.05
2023-11-30T07:37:22.530Z,11.75
2023-11-30T07:39:49.420Z,12.68
2023-11-30T07:42:28.923Z,13.48
2023-11-30T07:47:27.468Z,13.65
2023-11-30T07:49:54.289Z,14.68
2023-11-30T07:52:21.462Z,14.40
2023-11-30T07:54:48.941Z,14.65
2023-11-30T07:57:17.382Z,14.30
2023-11-30T07:59:45.243Z,13.98
2023-11-30T08:02:12.018Z,14.77
2023-11-30T08:04:38.948Z,14.88
2023-11-30T08:07:06.088Z,15.77
2023-11-30T08:09:34.853Z,14.18
2023-11-30T08:12:01.814Z,15.10
2023-11-30T08:14:29.252Z,14.35
2023-11-30T08:16:56.277Z,14.90
2023-11-30T08:19:23.072Z,15.45
2023-11-30T08:21:50.215Z,14.85
2023-11-30T08:24:17.097Z,15.10
2023-11-30T08:26:43.926Z,16.00
2023-11-30T08:29:10.724Z,15.52
2023-11-30T08:31:37.833Z,14.85
2023-11-30T08:34:04.825Z,15.25
2023-11-30T08:36:31.710Z,15.65
2023-11-30T08:38:58.528Z,15.60
2023-11-30T08:41:25.295Z,16.40
2023-11-30T08:43:52.057Z,15.10
2023-11-30T08:46:19.269Z,16.17
2023-11-30T08:48:46.507Z,19.52
2023-11-30T08:51:14.076Z,22.98
2023-11-30T08:53:41.387Z,24.30
2023-11-30T08:56:08.775Z,22.88
2023-11-30T08:58:35.645Z,23.40
2023-11-30T09:01:02.596Z,24.33
2023-11-30T09:03:29.317Z,23.27
2023-11-30T09:05:56.125Z,22.80
2023-11-30T09:08:22.989Z,23.88
2023-11-30T09:10:49.847Z,21.30
2023-11-30T09:13:16.625Z,19.67
2023-11-30T09:15:43.522Z,18.13
2023-11-30T09:18:12.181Z,17.55
2023-11-30T09:20:38.989Z,15.23
2023-11-30T09:23:06.454Z,14.07
2023-11-30T09:25:34.057Z,15.05
2023-11-30T09:28:01.054Z,14.60
2023-11-30T09:30:27.854Z,12.80
2023-11-30T09:32:55.073Z,12.05
2023-11-30T09:35:21.936Z,12.63
2023-11-30T09:37:49.427Z,12.15
2023-11-30T09:40:16.429Z,11.85
2023-11-30T09:42:43.226Z,12.05
2023-11-30T09:45:10.228Z,12.73
2023-11-30T09:47:37.100Z,12.20
2023-11-30T09:50:04.446Z,12.27
2023-11-30T09:52:32.638Z,11.82
2023-11-30T09:55:00.028Z,12.20
2023-11-30T09:57:26.900Z,11.43
2023-11-30T09:59:54.046Z,13.23
2023-11-30T10:02:20.928Z,12.48
2023-11-30T10:04:47.781Z,11.73
2023-11-30T10:07:14.636Z,12.93
2023-11-30T10:09:41.545Z,11.90
2023-11-30T10:12:08.537Z,12.15
2023-11-30T10:14:35.371Z,12.45
2023-11-30T10:17:02.275Z,11.00
2023-11-30T10:19:29.708Z,12.55
2023-11-30T10:21:57.290Z,12.38
2023-11-30T10:24:28.678Z,11.38
2023-11-30T10:26:59.290Z,11.48
2023-11-30T10:29:28.530Z,11.45
2023-11-30T10:31:57.007Z,10.85
2023-11-30T10:34:34.414Z,11.20
2023-11-30T10:37:04.500Z,10.40
2023-11-30T10:39:37.455Z,11.68
2023-11-30T10:42:09.824Z,10.48
2023-11-30T10:44:37.102Z,8.83
2023-11-30T10:47:04.047Z,9.63
2023-11-30T10:49:30.976Z,9.73
2023-11-30T10:52:03.745Z,10.25
2023-11-30T10:54:53.077Z,9.13
2023-11-30T10:57:20.459Z,9.30
2023-11-30T10:59:49.104Z,8.85
2023-11-30T11:02:16.459Z,9.13
2023-11-30T11:04:43.757Z,8.35
2023-11-30T11:07:13.393Z,8.77
2023-11-30T11:10:03.560Z,8.82
2023-11-30T11:12:38.672Z,6.97
2023-11-30T11:15:15.990Z,7.70
2023-11-30T11:17:48.711Z,7.97
2023-11-30T11:20:28.928Z,7.03
2023-11-30T11:22:56.943Z,6.85
2023-11-30T11:25:26.166Z,6.72
2023-11-30T11:27:53.029Z,7.60
2023-11-30T11:30:21.938Z,6.53
2023-11-30T11:32:49.745Z,6.78
2023-11-30T11:35:16.528Z,7.22
2023-11-30T11:37:43.240Z,7.75
2023-11-30T11:40:10.380Z,7.22
2023-11-30T11:42:37.249Z,6.63
2023-11-30T11:45:05.455Z,6.50
2023-11-30T11:47:33.176Z,6.00
2023-11-30T11:50:00.618Z,6.50
2023-11-30T11:52:28.777Z,6.53
2023-11-30T11:55:05.911Z,6.70
2023-11-30T11:57:39.893Z,6.93
2023-11-30T12:00:18.831Z,7.75
2023-11-30T12:02:46.245Z,7.35
2023-11-30T12:05:15.037Z,7.55
2023-11-30T12:07:59.526Z,7.20
2023-11-30T12:10:33.892Z,7.25
2023-11-30T12:13:02.370Z,7.50
2023-11-30T12:15:29.755Z,7.38
2023-11-30T12:17:56.755Z,7.05
2023-11-30T12:20:23.796Z,7.32
2023-11-30T12:22:50.561Z,7.28
2023-11-30T12:25:17.825Z,6.90
2023-11-30T12:27:44.951Z,7.72
2023-11-30T12:30:12.385Z,6.97
2023-11-30T12:32:39.665Z,7.80
2023-11-30T12:35:07.970Z,6.40
2023-11-30T12:37:36.652Z,6.70
2023-11-30T12:40:04.867Z,7.05
2023-11-30T12:42:32.159Z,7.88
2023-11-30T12:44:59.270Z,7.22
2023-11-30T12:47:26.884Z,7.68
2023-11-30T12:49:53.850Z,6.75
2023-11-30T12:52:21.981Z,6.82
2023-11-30T12:54:52.967Z,6.43
2023-11-30T12:57:20.891Z,7.00
2023-11-30T12:59:47.856Z,7.25
2023-11-30T13:02:14.788Z,7.38
2023-11-30T13:04:42.012Z,7.65
2023-11-30T13:07:08.770Z,7.10
2023-11-30T13:09:36.439Z,8.50
2023-11-30T13:12:04.506Z,7.50
2023-11-30T13:14:32.023Z,6.68
2023-11-30T13:16:58.981Z,6.68
2023-11-30T13:19:26.198Z,7.20
2023-11-30T13:21:53.473Z,7.90
2023-11-30T13:24:21.024Z,7.70
2023-11-30T13:26:49.182Z,7.13
2023-11-30T13:29:16.141Z,6.97
2023-11-30T13:31:43.022Z,7.20
2023-11-30T13:34:09.773Z,7.70
2023-11-30T13:36:36.516Z,7.18
2023-11-30T13:39:05.990Z,7.13
2023-11-30T13:41:33.001Z,7.45
2023-11-30T13:43:59.855Z,7.88
2023-11-30T13:46:26.868Z,8.30
2023-11-30T13:48:53.840Z,6.93
2023-11-30T13:51:21.091Z,7.55
2023-11-30T13:53:48.140Z,7.72
2023-11-30T13:56:15.889Z,7.78
2023-11-30T13:58:42.660Z,7.72
2023-11-30T14:01:11.033Z,7.45
2023-11-30T14:03:38.791Z,7.93
2023-11-30T14:06:06.029Z,7.72
2023-11-30T14:08:33.123Z,7.30
2023-11-30T14:11:00.039Z,8.23
2023-11-30T14:13:26.839Z,7.45
2023-11-30T14:15:53.793Z,7.60
2023-11-30T14:18:20.731Z,7.13
2023-11-30T14:20:49.255Z,7.03
2023-11-30T14:23:16.110Z,7.13
2023-11-30T14:25:42.872Z,6.85
2023-11-30T14:28:12.753Z,7.90
2023-11-30T14:30:40.598Z,8.20
2023-11-30T14:33:10.670Z,7.93
2023-11-30T14:35:39.333Z,8.48
2023-11-30T14:38:06.363Z,8.85
2023-11-30T14:40:33.176Z,8.90
2023-11-30T14:43:00.233Z,8.15
2023-11-30T14:45:27.956Z,7.38
2023-11-30T14:47:54.910Z,7.00
2023-11-30T14:50:21.779Z,6.90
2023-11-30T14:52:48.556Z,6.88
2023-11-30T14:55:15.395Z,5.80
2023-11-30T14:57:43.041Z,7.30
2023-11-30T15:00:13.107Z,6.40
2023-11-30T15:02:40.615Z,6.65
2023-11-30T15:05:11.414Z,7.22
2023-11-30T15:07:38.857Z,6.90
2023-11-30T15:10:08.376Z,6.40
2023-11-30T15:12:36.819Z,7.53
2023-11-30T15:15:13.859Z,6.78
2023-11-30T15:17:43.120Z,7.25
2023-11-30T15:20:11.550Z,7.32
2023-11-30T15:22:38.970Z,7.32
2023-11-30T15:25:08.070Z,7.60
2023-11-30T15:27:35.670Z,7.95
2023-11-30T15:30:03.638Z,7.93
2023-11-30T15:32:31.338Z,8.15
2023-11-30T15:34:58.117Z,6.53
2023-11-30T15:37:24.856Z,7.00
2023-11-30T15:39:51.818Z,7.10
2023-11-30T15:42:18.666Z,8.13
2023-11-30T15:44:45.382Z,7.25
2023-11-30T15:47:13.034Z,7.43
2023-11-30T15:49:40.949Z,7.68
2023-11-30T15:52:07.705Z,6.88
2023-11-30T15:54:34.489Z,8.05
2023-11-30T15:57:01.300Z,8.18
2023-11-30T15:59:28.243Z,7.97
2023-11-30T16:01:55.164Z,9.15
2023-11-30T16:04:22.059Z,7.30
2023-11-30T16:06:49.539Z,7.20
2023-11-30T16:09:16.322Z,7.57
2023-11-30T16:11:43.084Z,8.45
2023-11-30T16:14:09.873Z,13.18
2023-11-30T16:16:40.802Z,10.02
2023-11-30T16:19:07.829Z,8.50
2023-11-30T16:21:35.103Z,7.68
2023-11-30T16:24:01.838Z,8.02
2023-11-30T16:26:29.153Z,4.28
2023-11-30T16:28:57.574Z,9.73
2023-11-30T16:31:27.130Z,9.70
2023-11-30T16:33:54.566Z,8.00
2023-11-30T16:36:21.652Z,12.07
2023-11-30T16:38:52.022Z,12.18
2023-11-30T16:41:19.107Z,13.32
2023-11-30T16:43:46.221Z,11.35
2023-11-30T16:46:13.697Z,11.65
2023-11-30T16:48:45.029Z,9.68
2023-11-30T16:51:12.665Z,9.82
2023-11-30T16:53:39.595Z,15.07
2023-11-30T16:56:06.650Z,19.95
2023-11-30T16:58:33.519Z,18.42
2023-11-30T17:01:00.534Z,14.43
2023-11-30T17:03:27.576Z,12.02
2023-11-30T17:05:54.609Z,12.90
2023-11-30T17:08:21.488Z,12.35
2023-11-30T17:10:48.507Z,14.90
2023-11-30T17:13:15.392Z,12.95
2023-11-30T17:15:42.134Z,10.40
2023-11-30T17:18:09.188Z,10.57
2023-11-30T17:20:36.112Z,10.82
2023-11-30T17:23:04.096Z,14.40
2023-11-30T17:25:30.952Z,11.23
2023-11-30T17:27:59.740Z,11.77
2023-11-30T17:30:26.945Z,10.02
2023-11-30T17:32:54.137Z,10.20
2023-11-30T17:35:21.406Z,13.43
2023-11-30T17:37:48.401Z,14.13
2023-11-30T17:40:15.184Z,16.35
2023-11-30T17:42:42.043Z,15.32
2023-11-30T17:45:10.640Z,14.50
2023-11-30T17:47:37.683Z,12.70
2023-11-30T17:50:05.011Z,10.68
2023-11-30T17:52:31.869Z,12.43
2023-11-30T17:54:58.874Z,11.80
2023-11-30T17:57:25.814Z,12.35
2023-11-30T17:59:54.237Z,11.68
2023-11-30T18:02:25.328Z,10.70
2023-11-30T18:04:53.541Z,12.43
2023-11-30T18:07:20.311Z,12.07
2023-11-30T18:09:47.137Z,12.02
2023-11-30T18:12:15.151Z,11.70
2023-11-30T18:14:42.986Z,13.55
2023-11-30T18:17:12.920Z,11.90
2023-11-30T18:19:41.089Z,12.50
2023-11-30T18:22:07.911Z,12.10
2023-11-30T18:24:34.983Z,12.93
2023-11-30T18:27:03.378Z,11.63
2023-11-30T18:29:31.520Z,12.25
2023-11-30T18:31:58.816Z,12.73
2023-11-30T18:34:25.618Z,15.02
2023-11-30T18:36:53.711Z,15.27
2023-11-30T18:39:20.607Z,11.88
2023-11-30T18:41:47.518Z,12.75
2023-11-30T18:44:14.737Z,13.30
2023-11-30T18:46:41.891Z,12.48
2023-11-30T18:49:08.971Z,13.18
2023-11-30T18:51:36.898Z,12.57
2023-11-30T18:54:03.935Z,11.60
2023-11-30T18:56:30.883Z,12.93
2023-11-30T18:58:58.621Z,11.95
2023-11-30T19:01:26.119Z,12.50
2023-11-30T19:03:53.404Z,11.10
2023-11-30T19:06:21.429Z,10.85
2023-11-30T19:08:49.616Z,14.32
2023-11-30T19:11:17.279Z,15.23
2023-11-30T19:13:44.652Z,23.63
2023-11-30T19:16:23.961Z,17.33
2023-11-30T19:18:51.584Z,15.90
2023-11-30T19:21:18.966Z,17.27
2023-11-30T19:23:48.894Z,15.85
2023-11-30T19:26:15.805Z,21.67
2023-11-30T19:28:42.734Z,15.55
2023-11-30T19:31:09.545Z,14.95
2023-11-30T19:33:36.419Z,15.43
2023-11-30T19:36:03.435Z,14.07
2023-11-30T19:38:30.340Z,15.25
2023-11-30T19:40:57.506Z,14.65
2023-11-30T19:43:25.395Z,14.93
2023-11-30T19:45:54.938Z,14.05
2023-11-30T19:48:22.249Z,17.35
2023-11-30T19:50:49.239Z,14.57
2023-11-30T19:53:16.451Z,14.65
2023-11-30T19:55:45.864Z,14.77
2023-11-30T19:58:13.315Z,14.85
2023-11-30T20:00:41.972Z,14.85
2023-11-30T20:03:09.550Z,14.70
2023-11-30T20:05:38.437Z,16.00
2023-11-30T20:08:05.668Z,15.63
2023-11-30T20:10:32.523Z,15.38
2023-11-30T20:12:59.540Z,15.23
2023-11-30T20:15:28.841Z,15.90
2023-11-30T20:17:55.744Z,17.05
2023-11-30T20:20:22.597Z,16.80
2023-11-30T20:22:49.573Z,15.90
2023-11-30T20:25:17.895Z,16.27
2023-11-30T20:27:44.870Z,14.93
2023-11-30T20:30:12.397Z,16.38
2023-11-30T20:32:39.324Z,15.68
2023-11-30T20:35:06.376Z,15.27
2023-11-30T20:37:33.200Z,16.15
2023-11-30T20:40:00.132Z,16.40
2023-11-30T20:42:27.164Z,15.35
2023-11-30T20:44:53.995Z,14.50
2023-11-30T20:47:21.542Z,15.35
2023-11-30T20:49:48.534Z,15.20
2023-11-30T20:52:15.852Z,14.70
2023-11-30T20:54:43.028Z,17.25
2023-11-30T20:57:10.003Z,14.63
2023-11-30T20:59:38.129Z,15.00
2023-11-30T21:02:06.265Z,15.35
2023-11-30T21:04:33.130Z,14.63
2023-11-30T21:07:00.164Z,13.95
2023-11-30T21:09:27.477Z,13.52
2023-11-30T21:11:55.641Z,15.27
2023-11-30T21:14:23.457Z,11.90
2023-11-30T21:16:50.899Z,13.18
2023-11-30T21:19:17.816Z,12.30
2023-11-30T21:21:46.443Z,11.90
2023-11-30T21:24:14.148Z,11.63
2023-11-30T21:26:40.868Z,12.27
2023-11-30T21:29:07.699Z,12.85
2023-11-30T21:31:34.485Z,45.28
2023-11-30T21:34:01.405Z,26.52
2023-11-30T21:36:28.236Z,15.35
2023-11-30T21:38:55.048Z,23.10
2023-11-30T21:41:21.869Z,16.10
2023-11-30T21:43:48.748Z,25.77
2023-11-30T21:46:15.575Z,16.38
2023-11-30T21:48:42.610Z,15.65
2023-11-30T21:51:09.525Z,14.68
2023-11-30T21:53:36.379Z,14.65
2023-11-30T21:56:03.272Z,12.82
2023-11-30T21:58:30.152Z,12.68
2023-11-30T22:00:57.642Z,12.40
2023-11-30T22:03:24.665Z,12.48
2023-11-30T22:05:51.947Z,12.10
2023-11-30T22:08:18.736Z,13.43
2023-11-30T22:10:45.830Z,13.63
2023-11-30T22:13:13.723Z,14.25
2023-11-30T22:15:40.487Z,14.93
2023-11-30T22:18:07.336Z,15.73
2023-11-30T22:20:35.324Z,15.27
2023-11-30T22:23:02.241Z,15.23
2023-11-30T22:25:29.145Z,14.63
2023-11-30T22:27:56.083Z,15.23
2023-11-30T22:30:22.840Z,15.23
2023-11-30T22:32:49.576Z,15.65
2023-11-30T22:35:16.386Z,15.48
2023-11-30T22:37:43.266Z,14.85
2023-11-30T22:40:10.476Z,13.88
2023-11-30T22:42:37.233Z,14.68
2023-11-30T22:45:05.488Z,15.20
2023-11-30T22:47:32.793Z,12.73
2023-11-30T22:49:59.517Z,14.75
2023-11-30T22:52:26.976Z,13.93
2023-11-30T22:54:54.030Z,14.50
2023-11-30T22:57:20.859Z,16.02
2023-11-30T22:59:47.659Z,14.25
2023-11-30T23:02:14.684Z,15.23
2023-11-30T23:04:41.766Z,14.88
2023-11-30T23:07:08.766Z,15.50
2023-11-30T23:09:35.661Z,14.35
2023-11-30T23:12:02.440Z,14.07
2023-11-30T23:14:29.288Z,15.88
2023-11-30T23:16:56.082Z,14.27
2023-11-30T23:19:22.916Z,15.90
2023-11-30T23:21:49.789Z,15.00
2023-11-30T23:24:25.533Z,14.98
2023-11-30T23:26:55.718Z,14.85
2023-11-30T23:29:23.110Z,15.30
2023-11-30T23:31:50.015Z,14.60
2023-11-30T23:34:16.854Z,15.50
2023-11-30T23:36:43.653Z,16.20
2023-11-30T23:39:10.370Z,16.23
2023-11-30T23:41:37.141Z,15.50
2023-11-30T23:44:04.004Z,16.00
2023-11-30T23:46:31.829Z,16.23
2023-11-30T23:48:59.048Z,16.48
2023-11-30T23:51:25.952Z,16.90
2023-11-30T23:53:52.744Z,15.90
2023-11-30T23:56:19.512Z,16.20
2023-11-30T23:58:46.225Z,15.27
